createdAt,value
2018-09-19T00:02:14.949Z,16.13
2018-09-19T00:04:43.504Z,16.01
2018-09-19T00:07:12.132Z,15.93
2018-09-19T00:09:40.650Z,15.89
2018-09-19T00:12:09.203Z,15.86
2018-09-19T00:14:37.749Z,15.82
2018-09-19T00:17:06.347Z,15.83
2018-09-19T00:19:34.931Z,15.87
2018-09-19T00:22:03.466Z,15.73
2018-09-19T00:24:32.063Z,15.71
2018-09-19T00:27:00.681Z,15.61
2018-09-19T00:29:29.197Z,15.70
2018-09-19T00:31:57.746Z,15.63
2018-09-19T00:34:26.291Z,15.52
2018-09-19T00:36:54.928Z,15.58
2018-09-19T00:39:23.464Z,15.50
2018-09-19T00:41:52.104Z,15.43
2018-09-19T00:44:20.719Z,15.36
2018-09-19T00:46:49.238Z,15.37
2018-09-19T00:49:17.791Z,15.31
2018-09-19T00:51:46.399Z,15.27
2018-09-19T00:54:14.972Z,15.26
2018-09-19T00:56:43.535Z,15.16
2018-09-19T00:59:12.110Z,15.10
2018-09-19T01:01:40.640Z,15.09
2018-09-19T01:04:09.428Z,15.20
2018-09-19T01:06:37.911Z,15.18
2018-09-19T01:09:08.000Z,15.01
2018-09-19T01:11:38.636Z,14.91
2018-09-19T01:14:07.151Z,14.88
2018-09-19T01:16:35.640Z,14.83
2018-09-19T01:19:04.171Z,14.89
2018-09-19T01:21:32.759Z,14.93
2018-09-19T01:24:01.288Z,14.84
2018-09-19T01:26:29.767Z,14.81
2018-09-19T01:28:58.292Z,14.82
2018-09-19T01:31:26.800Z,14.79
2018-09-19T01:33:55.331Z,14.84
2018-09-19T01:36:23.916Z,14.78
2018-09-19T01:38:52.460Z,14.70
2018-09-19T01:41:21.045Z,14.66
2018-09-19T01:43:49.552Z,14.56
2018-09-19T01:46:18.080Z,14.59
2018-09-19T01:48:46.575Z,14.55
2018-09-19T01:51:15.092Z,14.48
2018-09-19T01:53:43.583Z,14.41
2018-09-19T01:56:12.045Z,14.42
2018-09-19T01:58:40.576Z,14.48
2018-09-19T02:01:09.017Z,14.49
2018-09-19T02:03:37.496Z,14.49
2018-09-19T02:06:06.385Z,14.46
2018-09-19T02:08:35.017Z,14.53
2018-09-19T02:11:03.513Z,14.43
2018-09-19T02:13:32.023Z,14.36
2018-09-19T02:16:00.529Z,14.24
2018-09-19T02:18:28.997Z,14.30
2018-09-19T02:20:57.501Z,14.26
2018-09-19T02:23:25.984Z,14.23
2018-09-19T02:25:54.514Z,14.34
2018-09-19T02:28:23.159Z,14.35
2018-09-19T02:30:51.648Z,14.32
2018-09-19T02:33:20.104Z,14.34
2018-09-19T02:35:48.576Z,14.37
2018-09-19T02:38:17.077Z,14.35
2018-09-19T02:40:45.843Z,14.37
2018-09-19T02:43:14.444Z,14.23
2018-09-19T02:45:42.911Z,14.15
2018-09-19T02:48:11.438Z,14.12
2018-09-19T02:50:40.061Z,14.18
2018-09-19T02:53:08.506Z,14.12
2018-09-19T02:55:36.977Z,14.12
2018-09-19T02:58:05.505Z,14.24
2018-09-19T03:00:33.969Z,14.14
2018-09-19T03:03:02.543Z,14.05
2018-09-19T03:05:30.989Z,14.02
2018-09-19T03:07:59.487Z,14.00
2018-09-19T03:10:27.968Z,13.98
2018-09-19T03:12:56.539Z,13.92
2018-09-19T03:15:25.052Z,13.97
2018-09-19T03:17:53.503Z,13.99
2018-09-19T03:20:22.009Z,13.98
2018-09-19T03:22:51.575Z,13.87
2018-09-19T03:25:20.144Z,13.81
2018-09-19T03:27:48.656Z,13.86
2018-09-19T03:30:17.160Z,13.85
2018-09-19T03:32:45.662Z,13.90
2018-09-19T03:35:14.163Z,14.00
2018-09-19T03:37:42.647Z,13.87
2018-09-19T03:40:11.131Z,13.79
2018-09-19T03:42:39.713Z,13.72
2018-09-19T03:45:08.208Z,13.69
2018-09-19T03:47:36.737Z,13.70
2018-09-19T03:50:05.283Z,13.74
2018-09-19T03:52:33.768Z,13.69
2018-09-19T03:55:02.284Z,13.65
2018-09-19T03:57:30.743Z,13.75
2018-09-19T03:59:59.634Z,13.72
2018-09-19T04:02:28.095Z,13.73
2018-09-19T04:04:56.565Z,13.62
2018-09-19T04:07:25.068Z,13.63
2018-09-19T04:09:53.542Z,13.65
2018-09-19T04:12:23.224Z,13.55
2018-09-19T04:14:51.686Z,13.55
2018-09-19T04:17:21.677Z,13.54
2018-09-19T04:19:50.285Z,13.48
2018-09-19T04:22:18.907Z,13.52
2018-09-19T04:24:47.656Z,13.50
2018-09-19T04:27:16.139Z,13.55
2018-09-19T04:29:44.607Z,13.59
2018-09-19T04:32:13.351Z,13.63
2018-09-19T04:34:41.811Z,13.57
2018-09-19T04:37:10.303Z,13.58
2018-09-19T04:39:38.804Z,13.63
2018-09-19T04:42:07.501Z,13.61
2018-09-19T04:44:36.001Z,13.47
2018-09-19T04:47:04.557Z,13.56
2018-09-19T04:49:33.006Z,13.50
2018-09-19T04:52:01.469Z,13.48
2018-09-19T04:54:30.001Z,13.45
2018-09-19T04:56:58.482Z,13.40
2018-09-19T04:59:26.960Z,13.39
2018-09-19T05:01:55.437Z,13.55
2018-09-19T05:04:23.882Z,13.43
2018-09-19T05:06:52.493Z,13.30
2018-09-19T05:09:21.514Z,13.24
2018-09-19T05:11:50.104Z,13.27
2018-09-19T05:14:18.559Z,13.36
2018-09-19T05:16:47.043Z,13.32
2018-09-19T05:19:15.617Z,13.39
2018-09-19T05:21:44.104Z,13.49
2018-09-19T05:24:12.588Z,13.46
2018-09-19T05:26:41.137Z,13.39
2018-09-19T05:29:09.619Z,13.40
2018-09-19T05:31:38.148Z,13.36
2018-09-19T05:34:06.593Z,13.38
2018-09-19T05:36:35.056Z,13.39
2018-09-19T05:39:04.360Z,13.43
2018-09-19T05:41:32.828Z,13.43
2018-09-19T05:44:01.320Z,13.43
2018-09-19T05:46:29.820Z,13.53
2018-09-19T05:48:58.283Z,13.59
2018-09-19T05:51:26.762Z,13.59
2018-09-19T05:53:55.227Z,13.64
2018-09-19T05:56:24.023Z,13.72
2018-09-19T05:58:52.684Z,13.70
2018-09-19T06:01:21.166Z,13.82
2018-09-19T06:03:49.767Z,13.93
2018-09-19T06:06:18.494Z,14.01
2018-09-19T06:08:47.089Z,14.04
2018-09-19T06:11:15.594Z,14.20
2018-09-19T06:13:44.141Z,14.33
2018-09-19T06:16:12.629Z,14.57
2018-09-19T06:18:41.097Z,14.76
2018-09-19T06:21:09.555Z,14.92
2018-09-19T06:23:38.033Z,15.04
2018-09-19T06:26:06.539Z,15.17
2018-09-19T06:28:35.080Z,15.32
2018-09-19T06:31:03.581Z,15.44
2018-09-19T06:33:32.129Z,15.54
2018-09-19T06:36:00.614Z,15.59
2018-09-19T06:38:29.135Z,15.65
2018-09-19T06:40:57.722Z,15.73
2018-09-19T06:43:26.096Z,15.76
2018-09-19T06:45:54.626Z,15.82
2018-09-19T06:48:23.159Z,15.84
2018-09-19T06:50:51.666Z,15.88
2018-09-19T06:53:21.287Z,16.01
2018-09-19T06:55:49.796Z,16.02
2018-09-19T06:58:18.276Z,16.10
2018-09-19T07:00:46.769Z,16.14
2018-09-19T07:03:15.326Z,16.18
2018-09-19T07:05:43.945Z,16.21
2018-09-19T07:08:12.412Z,16.29
2018-09-19T07:10:40.944Z,16.38
2018-09-19T07:13:09.529Z,16.49
2018-09-19T07:15:38.408Z,16.59
2018-09-19T07:18:07.020Z,16.66
2018-09-19T07:20:35.536Z,16.76
2018-09-19T07:23:04.068Z,16.89
2018-09-19T07:25:32.717Z,16.98
2018-09-19T07:28:01.236Z,17.07
2018-09-19T07:30:29.740Z,17.13
2018-09-19T07:32:58.285Z,17.24
2018-09-19T07:35:26.822Z,17.30
2018-09-19T07:37:55.346Z,17.35
2018-09-19T07:40:23.930Z,17.42
2018-09-19T07:42:52.383Z,17.50
2018-09-19T07:45:21.064Z,17.58
2018-09-19T07:47:49.658Z,17.71
2018-09-19T07:50:18.266Z,17.76
2018-09-19T07:52:47.124Z,17.83
2018-09-19T07:55:15.723Z,17.89
2018-09-19T07:57:44.183Z,18.02
2018-09-19T08:00:12.690Z,18.14
2018-09-19T08:02:41.207Z,18.22
2018-09-19T08:05:09.710Z,18.31
2018-09-19T08:07:38.224Z,18.40
2018-09-19T08:10:07.925Z,18.54
2018-09-19T08:12:36.814Z,18.65
2018-09-19T08:15:05.396Z,18.73
2018-09-19T08:17:34.157Z,18.74
2018-09-19T08:20:02.728Z,18.85
2018-09-19T08:22:31.310Z,18.99
2018-09-19T08:24:59.878Z,19.09
2018-09-19T08:27:28.374Z,19.18
2018-09-19T08:29:56.901Z,19.30
2018-09-19T08:32:25.419Z,19.32
2018-09-19T08:34:53.971Z,19.43
2018-09-19T08:37:22.496Z,19.49
2018-09-19T08:39:51.120Z,19.60
2018-09-19T08:42:19.634Z,19.67
2018-09-19T08:44:48.165Z,19.78
2018-09-19T08:47:16.692Z,19.82
2018-09-19T08:49:45.181Z,19.91
2018-09-19T08:52:13.729Z,19.97
2018-09-19T08:54:42.228Z,20.00
2018-09-19T08:57:10.763Z,20.13
2018-09-19T08:59:39.276Z,20.25
2018-09-19T09:02:07.889Z,20.28
2018-09-19T09:04:36.383Z,20.30
2018-09-19T09:07:05.036Z,20.37
2018-09-19T09:09:33.513Z,20.42
2018-09-19T09:12:02.123Z,20.49
2018-09-19T09:14:30.639Z,20.63
2018-09-19T09:16:59.144Z,20.75
2018-09-19T09:19:27.691Z,20.86
2018-09-19T09:21:56.223Z,20.91
2018-09-19T09:24:24.782Z,21.06
2018-09-19T09:26:53.726Z,21.22
2018-09-19T09:29:22.205Z,21.25
2018-09-19T09:31:50.715Z,21.29
2018-09-19T09:34:19.323Z,21.41
2018-09-19T09:36:47.858Z,21.43
2018-09-19T09:39:16.433Z,21.57
2018-09-19T09:41:44.978Z,21.66
2018-09-19T09:44:13.517Z,21.74
2018-09-19T09:46:42.101Z,21.80
2018-09-19T09:49:10.590Z,21.83
2018-09-19T09:51:39.120Z,21.90
2018-09-19T09:54:08.002Z,22.01
2018-09-19T09:56:36.699Z,22.21
2018-09-19T09:59:05.221Z,22.21
2018-09-19T10:01:33.779Z,22.26
2018-09-19T10:04:02.332Z,22.36
2018-09-19T10:06:30.877Z,22.47
2018-09-19T10:08:59.399Z,22.58
2018-09-19T10:11:27.992Z,22.75
2018-09-19T10:13:56.659Z,22.84
2018-09-19T10:16:25.165Z,23.03
2018-09-19T10:18:53.730Z,23.14
2018-09-19T10:21:22.359Z,23.25
2018-09-19T10:23:50.892Z,23.36
2018-09-19T10:26:19.405Z,23.33
2018-09-19T10:28:48.313Z,23.51
2018-09-19T10:31:16.857Z,23.54
2018-09-19T10:33:45.395Z,23.62
2018-09-19T10:36:13.900Z,23.58
2018-09-19T10:38:42.460Z,23.67
2018-09-19T10:41:10.955Z,23.68
2018-09-19T10:43:39.495Z,23.79
2018-09-19T10:46:08.102Z,23.90
2018-09-19T10:48:36.596Z,24.09
2018-09-19T10:51:05.084Z,24.20
2018-09-19T10:53:33.594Z,24.37
2018-09-19T10:56:02.297Z,24.60
2018-09-19T10:58:30.889Z,24.59
2018-09-19T11:00:59.499Z,24.63
2018-09-19T11:03:28.029Z,24.66
2018-09-19T11:05:56.543Z,24.49
2018-09-19T11:08:25.198Z,24.59
2018-09-19T11:10:53.692Z,24.85
2018-09-19T11:13:22.828Z,24.82
2018-09-19T11:15:51.339Z,24.82
2018-09-19T11:18:19.848Z,24.93
2018-09-19T11:20:48.351Z,24.93
2018-09-19T11:23:16.911Z,24.97
2018-09-19T11:25:45.384Z,25.06
2018-09-19T11:28:13.872Z,25.17
2018-09-19T11:30:42.408Z,25.38
2018-09-19T11:33:10.883Z,25.43
2018-09-19T11:35:39.388Z,25.43
2018-09-19T11:38:07.896Z,25.51
2018-09-19T11:40:36.469Z,25.59
2018-09-19T11:43:04.974Z,25.81
2018-09-19T11:45:33.483Z,25.83
2018-09-19T11:48:02.072Z,25.93
2018-09-19T11:50:30.597Z,26.04
2018-09-19T11:52:59.105Z,25.91
2018-09-19T11:55:27.716Z,25.90
2018-09-19T11:57:56.251Z,26.00
2018-09-19T12:00:24.791Z,26.15
2018-09-19T12:02:53.354Z,26.24
2018-09-19T12:05:21.914Z,26.34
2018-09-19T12:07:50.453Z,26.34
2018-09-19T12:10:18.956Z,26.24
2018-09-19T12:12:47.503Z,26.33
2018-09-19T12:15:16.010Z,26.48
2018-09-19T12:17:44.495Z,26.41
2018-09-19T12:20:13.014Z,26.23
2018-09-19T12:22:41.507Z,26.23
2018-09-19T12:25:10.058Z,26.31
2018-09-19T12:27:38.556Z,26.39
2018-09-19T12:30:07.127Z,26.61
2018-09-19T12:32:35.615Z,26.80
2018-09-19T12:35:04.206Z,26.78
2018-09-19T12:37:32.715Z,26.90
2018-09-19T12:40:01.277Z,26.98
2018-09-19T12:42:29.837Z,27.23
2018-09-19T12:44:58.357Z,27.24
2018-09-19T12:47:26.863Z,27.14
2018-09-19T12:49:55.368Z,27.19
2018-09-19T12:52:25.315Z,27.21
2018-09-19T12:54:53.848Z,27.33
2018-09-19T12:57:22.804Z,27.19
2018-09-19T12:59:51.323Z,27.24
2018-09-19T13:02:19.821Z,27.49
2018-09-19T13:04:48.700Z,27.45
2018-09-19T13:07:17.180Z,27.48
2018-09-19T13:09:45.660Z,27.10
2018-09-19T13:12:14.628Z,26.98
2018-09-19T13:14:43.384Z,26.81
2018-09-19T13:17:12.194Z,27.05
2018-09-19T13:19:41.261Z,27.05
2018-09-19T13:22:09.746Z,27.10
2018-09-19T13:24:38.229Z,27.20
2018-09-19T13:27:06.792Z,27.32
2018-09-19T13:29:36.444Z,27.53
2018-09-19T13:32:04.949Z,27.51
2018-09-19T13:34:33.413Z,27.47
2018-09-19T13:37:01.988Z,27.28
2018-09-19T13:39:30.496Z,27.55
2018-09-19T13:41:59.571Z,27.46
2018-09-19T13:44:28.079Z,27.46
2018-09-19T13:46:57.014Z,27.10
2018-09-19T13:49:30.736Z,26.94
2018-09-19T13:51:59.365Z,27.09
2018-09-19T13:54:27.827Z,27.09
2018-09-19T13:56:56.495Z,27.15
2018-09-19T13:59:26.357Z,27.03
2018-09-19T14:01:54.921Z,26.99
2018-09-19T14:04:23.476Z,26.95
2018-09-19T14:06:51.955Z,26.86
2018-09-19T14:09:20.514Z,26.93
2018-09-19T14:11:49.594Z,26.95
2018-09-19T14:14:19.306Z,27.07
2018-09-19T14:16:48.677Z,27.11
2018-09-19T14:19:17.259Z,27.12
2018-09-19T14:21:45.776Z,27.11
2018-09-19T14:24:14.240Z,27.16
2018-09-19T14:26:42.737Z,27.16
2018-09-19T14:29:11.394Z,27.15
2018-09-19T14:31:39.894Z,27.21
2018-09-19T14:34:09.419Z,27.22
2018-09-19T14:36:38.020Z,27.18
2018-09-19T14:39:07.516Z,27.16
2018-09-19T14:41:36.017Z,27.07
2018-09-19T14:44:04.616Z,27.01
2018-09-19T14:46:33.113Z,26.89
2018-09-19T14:49:02.199Z,26.76
2018-09-19T14:51:30.684Z,26.69
2018-09-19T14:53:59.503Z,26.81
2018-09-19T14:56:28.098Z,26.86
2018-09-19T14:58:56.729Z,26.84
2018-09-19T15:13:21.524Z,26.64
2018-09-19T15:15:50.116Z,26.63
2018-09-19T15:18:19.765Z,26.63
2018-09-19T15:20:48.353Z,26.65
2018-09-19T15:23:16.985Z,26.61
2018-09-19T15:25:45.600Z,26.63
2018-09-19T15:28:14.423Z,26.58
2018-09-19T15:30:43.289Z,26.53
2018-09-19T15:33:11.818Z,26.49
2018-09-19T15:35:40.354Z,26.46
2018-09-19T15:38:08.899Z,26.44
2018-09-19T15:40:37.378Z,26.44
2018-09-19T15:43:06.465Z,26.44
2018-09-19T15:45:38.322Z,26.42
2018-09-19T15:48:07.093Z,26.42
2018-09-19T15:50:35.682Z,26.42
2018-09-19T15:53:04.189Z,26.37
2018-09-19T15:55:33.732Z,26.33
2018-09-19T15:58:02.203Z,26.29
2018-09-19T16:00:30.721Z,26.26
2018-09-19T16:02:59.417Z,26.24
2018-09-19T16:05:28.040Z,26.21
2018-09-19T16:07:56.539Z,26.17
2018-09-19T16:10:26.138Z,26.11
2018-09-19T16:12:54.640Z,26.07
2018-09-19T16:15:23.142Z,26.03
2018-09-19T16:17:51.749Z,26.02
2018-09-19T16:20:21.547Z,25.98
2018-09-19T16:22:50.023Z,25.95
2018-09-19T16:25:18.635Z,25.88
2018-09-19T16:27:47.134Z,25.83
2018-09-19T16:30:16.902Z,25.74
2018-09-19T16:32:45.489Z,25.68
2018-09-19T16:35:14.048Z,25.67
2018-09-19T16:37:42.994Z,25.65
2018-09-19T16:40:12.729Z,25.59
2018-09-19T16:42:42.460Z,25.56
2018-09-19T16:45:12.977Z,25.49
2018-09-19T16:47:41.711Z,25.46
2018-09-19T16:50:10.213Z,25.42
2018-09-19T16:52:38.817Z,25.35
2018-09-19T16:55:07.429Z,25.27
2018-09-19T16:57:35.938Z,25.23
2018-09-19T17:00:04.873Z,25.14
2018-09-19T17:02:33.393Z,25.14
2018-09-19T17:05:02.891Z,25.13
2018-09-19T17:07:32.272Z,25.13
2018-09-19T17:10:01.585Z,25.14
2018-09-19T17:12:31.333Z,25.13
2018-09-19T17:15:00.052Z,25.08
2018-09-19T17:17:29.636Z,25.00
2018-09-19T17:19:58.129Z,24.96
2018-09-19T17:22:27.730Z,24.88
2018-09-19T17:24:56.332Z,24.84
2018-09-19T17:27:24.794Z,24.74
2018-09-19T17:29:54.302Z,24.63
2018-09-19T17:32:22.961Z,24.51
2018-09-19T17:34:51.523Z,24.44
2018-09-19T17:37:20.092Z,24.37
2018-09-19T17:39:49.737Z,24.31
2018-09-19T17:42:18.226Z,24.22
2018-09-19T17:44:46.919Z,24.15
2018-09-19T17:47:15.631Z,24.09
2018-09-19T17:49:45.239Z,24.00
2018-09-19T17:52:15.751Z,23.93
2018-09-19T17:54:44.330Z,23.86
2018-09-19T17:57:13.888Z,23.77
2018-09-19T17:59:43.472Z,23.66
2018-09-19T18:02:12.257Z,23.58
2018-09-19T18:04:40.817Z,23.51
2018-09-19T18:07:09.549Z,23.44
2018-09-19T18:09:39.112Z,23.36
2018-09-19T18:12:08.052Z,23.28
2018-09-19T18:14:36.553Z,23.19
2018-09-19T18:17:05.249Z,23.14
2018-09-19T18:19:33.880Z,23.08
2018-09-19T18:22:02.388Z,22.98
2018-09-19T18:24:30.869Z,22.85
2018-09-19T18:26:59.750Z,22.74
2018-09-19T18:29:29.328Z,22.71
2018-09-19T18:31:57.792Z,22.63
2018-09-19T18:34:27.301Z,22.55
2018-09-19T18:36:55.768Z,22.53
2018-09-19T18:39:24.245Z,22.55
2018-09-19T18:41:53.757Z,22.56
2018-09-19T18:44:23.316Z,22.49
2018-09-19T18:46:51.816Z,22.44
2018-09-19T18:49:20.356Z,22.43
2018-09-19T18:51:48.892Z,22.33
2018-09-19T18:54:22.281Z,22.25
2018-09-19T18:56:51.610Z,22.14
2018-09-19T18:59:20.315Z,22.06
2018-09-19T19:01:50.242Z,21.95
2018-09-19T19:04:18.655Z,21.87
2018-09-19T19:06:47.128Z,21.76
2018-09-19T19:09:15.620Z,21.76
2018-09-19T19:11:44.101Z,21.71
2018-09-19T19:14:12.636Z,21.63
2018-09-19T19:16:41.089Z,21.54
2018-09-19T19:19:09.628Z,21.49
2018-09-19T19:21:38.128Z,21.50
2018-09-19T19:24:06.661Z,21.38
2018-09-19T19:26:35.204Z,21.16
2018-09-19T19:29:03.705Z,20.98
2018-09-19T19:31:32.172Z,20.91
2018-09-19T19:34:00.683Z,20.84
2018-09-19T19:36:29.214Z,20.74
2018-09-19T19:38:57.668Z,20.87
2018-09-19T19:41:26.140Z,20.71
2018-09-19T19:43:54.653Z,20.55
2018-09-19T19:46:23.141Z,20.50
2018-09-19T19:48:51.633Z,20.40
2018-09-19T19:51:20.173Z,20.27
2018-09-19T19:53:48.644Z,20.23
2018-09-19T19:56:17.332Z,20.21
2018-09-19T19:58:45.941Z,20.13
2018-09-19T20:01:14.677Z,20.08
2018-09-19T20:03:43.188Z,20.03
2018-09-19T20:06:11.671Z,19.97
2018-09-19T20:08:40.141Z,19.91
2018-09-19T20:11:08.600Z,19.83
2018-09-19T20:13:37.093Z,19.79
2018-09-19T20:16:05.660Z,19.77
2018-09-19T20:18:34.232Z,19.75
2018-09-19T20:21:03.152Z,19.61
2018-09-19T20:23:31.600Z,19.54
2018-09-19T20:26:00.074Z,19.50
2018-09-19T20:28:28.597Z,19.43
2018-09-19T20:30:57.098Z,19.40
2018-09-19T20:33:25.598Z,19.32
2018-09-19T20:35:54.061Z,19.30
2018-09-19T20:38:22.532Z,19.23
2018-09-19T20:40:51.002Z,19.21
2018-09-19T20:43:19.674Z,19.17
2018-09-19T20:45:48.140Z,19.15
2018-09-19T20:48:16.671Z,19.08
2018-09-19T20:50:45.436Z,18.96
2018-09-19T20:53:13.996Z,18.89
2018-09-19T20:55:42.492Z,18.82
2018-09-19T20:58:11.209Z,18.77
2018-09-19T21:00:39.723Z,18.72
2018-09-19T21:03:08.212Z,18.68
2018-09-19T21:05:36.812Z,18.71
2018-09-19T21:08:05.284Z,18.62
2018-09-19T21:10:33.781Z,18.60
2018-09-19T21:13:02.291Z,18.54
2018-09-19T21:15:31.047Z,18.53
2018-09-19T21:17:59.517Z,18.43
2018-09-19T21:20:29.013Z,18.33
2018-09-19T21:22:57.510Z,18.33
2018-09-19T21:25:26.127Z,18.35
2018-09-19T21:27:54.665Z,18.31
2018-09-19T21:30:24.172Z,18.27
2018-09-19T21:32:52.660Z,18.40
2018-09-19T21:35:21.192Z,18.40
2018-09-19T21:37:49.712Z,18.35
2018-09-19T21:40:18.200Z,18.42
2018-09-19T21:42:46.840Z,18.42
2018-09-19T21:45:15.357Z,18.56
2018-09-19T21:47:43.809Z,18.61
2018-09-19T21:50:12.339Z,18.79
2018-09-19T21:52:40.808Z,18.85
2018-09-19T21:55:09.277Z,18.79
2018-09-19T21:57:37.781Z,18.88
2018-09-19T22:00:07.161Z,18.88
2018-09-19T22:02:35.628Z,18.82
2018-09-19T22:05:04.284Z,18.94
2018-09-19T22:07:32.808Z,18.96
2018-09-19T22:10:01.261Z,19.09
2018-09-19T22:12:29.741Z,19.00
2018-09-19T22:14:58.213Z,19.00
2018-09-19T22:17:26.680Z,19.04
2018-09-19T22:19:55.384Z,19.00
2018-09-19T22:22:25.893Z,18.99
2018-09-19T22:24:54.365Z,19.05
2018-09-19T22:27:22.902Z,19.10
2018-09-19T22:29:51.337Z,19.13
2018-09-19T22:32:19.844Z,19.15
2018-09-19T22:34:48.334Z,19.15
2018-09-19T22:37:16.829Z,19.25
2018-09-19T22:39:46.316Z,19.29
2018-09-19T22:42:14.783Z,19.31
2018-09-19T22:44:43.308Z,19.33
2018-09-19T22:47:11.799Z,19.34
2018-09-19T22:49:40.256Z,19.28
2018-09-19T22:52:08.741Z,19.25
2018-09-19T22:54:37.205Z,19.26
2018-09-19T22:57:05.778Z,19.24
2018-09-19T22:59:34.232Z,19.20
2018-09-19T23:02:03.027Z,19.17
2018-09-19T23:04:31.491Z,19.16
2018-09-19T23:06:59.981Z,19.16
2018-09-19T23:09:30.559Z,19.11
2018-09-19T23:11:59.020Z,19.07
2018-09-19T23:14:27.488Z,19.04
2018-09-19T23:16:57.129Z,18.97
2018-09-19T23:19:25.969Z,18.82
2018-09-19T23:21:54.491Z,18.62
2018-09-19T23:24:22.972Z,18.49
2018-09-19T23:26:51.428Z,18.45
2018-09-19T23:29:20.956Z,18.33
2018-09-19T23:31:49.474Z,18.40
2018-09-19T23:34:18.044Z,18.25
2018-09-19T23:36:46.520Z,18.11
2018-09-19T23:39:14.991Z,17.93
2018-09-19T23:41:44.511Z,17.78
2018-09-19T23:44:12.967Z,17.71
2018-09-19T23:46:41.723Z,17.68
2018-09-19T23:49:10.189Z,17.61
2018-09-19T23:51:38.712Z,17.52
2018-09-19T23:54:07.472Z,17.43
2018-09-19T23:56:35.949Z,17.41
2018-09-19T23:59:04.431Z,17.31
